Time;durP1;ratioP1;P1;durP2;ratioP2;P2;SDS_P1;SDS_P2;PMS_P1;PMS_P2;Temp;Humidity;BMP_temperature;BMP_pressure;BME280_temperature;BME280_humidity;BME280_pressure;Samples;Min_cycle;Max_cycle;Signal;HPM_P1;HPM_P2
2022/12/26 00:01:11;;;;;;;1.92;1.40;;;11.70;99.90;;;;;;5050146;28;20032;-66
2022/12/26 00:03:37;;;;;;;4.20;1.52;;;11.70;99.90;;;;;;5051005;28;20021;-66
2022/12/26 00:06:03;;;;;;;5.90;1.50;;;11.80;99.90;;;;;;5051780;28;20082;-68
2022/12/26 00:08:29;;;;;;;2.47;1.50;;;11.70;99.90;;;;;;5036634;28;20043;-69
2022/12/26 00:10:54;;;;;;;3.65;1.75;;;11.70;99.90;;;;;;5051542;28;20096;-67
2022/12/26 00:13:20;;;;;;;2.55;1.42;;;11.70;99.90;;;;;;5048862;28;20478;-66
2022/12/26 00:15:46;;;;;;;2.60;1.77;;;11.70;99.90;;;;;;5049538;28;20048;-67
2022/12/26 00:18:11;;;;;;;2.25;1.95;;;11.70;99.90;;;;;;5051788;28;20394;-67
2022/12/26 00:20:37;;;;;;;1.30;1.08;;;11.70;99.90;;;;;;5051540;28;20033;-66
2022/12/26 00:23:03;;;;;;;5.93;1.35;;;11.70;99.90;;;;;;5052010;28;20067;-67
2022/12/26 00:25:29;;;;;;;3.25;1.95;;;11.70;99.90;;;;;;5049585;28;20406;-67
2022/12/26 00:27:55;;;;;;;2.80;1.38;;;11.70;99.90;;;;;;5050876;28;20025;-68
2022/12/26 00:30:20;;;;;;;3.22;1.63;;;11.70;99.90;;;;;;5049467;28;20040;-67
2022/12/26 00:32:46;;;;;;;1.45;1.20;;;11.60;99.90;;;;;;5049484;28;20104;-67
2022/12/26 00:35:11;;;;;;;1.98;1.55;;;11.60;99.90;;;;;;5049198;28;20063;-66
2022/12/26 00:37:37;;;;;;;2.88;1.38;;;11.60;99.90;;;;;;5048659;28;20166;-67
2022/12/26 00:40:03;;;;;;;2.00;1.25;;;11.60;99.90;;;;;;5033070;28;20025;-69
2022/12/26 00:42:28;;;;;;;4.60;2.25;;;11.50;99.90;;;;;;5051465;28;20506;-66
2022/12/26 00:44:54;;;;;;;2.30;1.48;;;11.50;99.90;;;;;;5048948;28;20025;-66
2022/12/26 00:47:20;;;;;;;1.50;1.17;;;11.50;99.90;;;;;;5049849;28;20029;-67
2022/12/26 00:49:45;;;;;;;2.50;1.30;;;11.50;99.90;;;;;;5050969;28;20040;-67
2022/12/26 00:52:11;;;;;;;3.47;1.30;;;11.50;99.90;;;;;;5051359;28;20040;-66
2022/12/26 00:54:36;;;;;;;1.80;1.48;;;11.50;99.90;;;;;;5048677;28;20032;-64
2022/12/26 00:57:02;;;;;;;4.40;1.42;;;11.40;99.90;;;;;;5043721;28;20395;-66
2022/12/26 00:59:28;;;;;;;2.40;1.63;;;11.40;99.90;;;;;;5050359;28;20017;-68
2022/12/26 01:01:53;;;;;;;2.78;1.67;;;11.40;99.90;;;;;;5051229;28;20031;-66
2022/12/26 01:04:19;;;;;;;2.00;1.30;;;11.30;99.90;;;;;;5048290;28;20564;-68
2022/12/26 01:06:44;;;;;;;1.88;1.42;;;11.30;99.90;;;;;;5047149;28;20041;-67
2022/12/26 01:09:12;;;;;;;4.30;1.60;;;11.30;99.90;;;;;;5050773;28;20410;-68
2022/12/26 01:11:40;;;;;;;2.78;1.40;;;11.20;99.90;;;;;;5050826;28;20025;-67
2022/12/26 01:14:15;;;;;;;3.58;1.67;;;11.20;99.90;;;;;;5050999;28;20036;-67
2022/12/26 01:16:43;;;;;;;3.15;1.58;;;11.20;99.90;;;;;;5050799;28;20033;-68
2022/12/26 01:19:10;;;;;;;5.60;1.50;;;11.20;99.90;;;;;;5050158;28;20025;-66
2022/12/26 01:21:36;;;;;;;4.28;1.73;;;11.20;99.90;;;;;;5049062;28;20826;-68
2022/12/26 01:24:01;;;;;;;4.57;1.35;;;11.20;99.90;;;;;;5050687;28;20150;-69
2022/12/26 01:26:27;;;;;;;2.25;1.25;;;11.20;99.90;;;;;;5050821;28;20025;-67
2022/12/26 01:28:53;;;;;;;1.92;1.52;;;11.20;99.90;;;;;;5050837;28;20029;-68
2022/12/26 01:31:20;;;;;;;3.47;1.58;;;11.10;99.90;;;;;;5050490;28;20025;-67
2022/12/26 01:33:46;;;;;;;4.53;1.98;;;11.10;99.90;;;;;;5050658;28;20032;-69
2022/12/26 01:36:12;;;;;;;4.18;1.75;;;11.10;99.90;;;;;;5048077;28;20036;-68
2022/12/26 01:38:38;;;;;;;5.18;2.13;;;11.10;99.90;;;;;;5042399;28;20017;-68
2022/12/26 01:41:16;;;;;;;4.70;1.50;;;11.10;99.90;;;;;;5047709;28;20024;-66
2022/12/26 01:43:47;;;;;;;2.85;1.70;;;11.10;99.90;;;;;;5050696;28;20033;-66
2022/12/26 01:46:15;;;;;;;2.72;1.52;;;11.10;99.90;;;;;;5050423;28;20048;-67
2022/12/26 01:48:40;;;;;;;6.30;1.90;;;11.10;99.90;;;;;;5048733;28;20648;-67
2022/12/26 01:51:06;;;;;;;2.50;1.45;;;11.10;99.90;;;;;;5049667;28;20040;-67
2022/12/26 01:53:41;;;;;;;3.85;1.75;;;11.00;99.90;;;;;;5050564;28;20025;-67
2022/12/26 01:56:12;;;;;;;2.40;1.70;;;11.00;99.90;;;;;;5032452;28;20037;-69
2022/12/26 01:58:48;;;;;;;2.47;1.52;;;11.00;99.90;;;;;;5050733;28;20104;-68
2022/12/26 02:01:14;;;;;;;2.85;1.52;;;11.00;99.90;;;;;;5048824;28;20047;-66
2022/12/26 02:06:28;;;;;;;4.63;1.52;;;11.00;99.90;;;;;;5046036;28;20091;-68
2022/12/26 02:08:54;;;;;;;2.88;1.85;;;11.00;99.90;;;;;;5050206;28;20021;-67
2022/12/26 02:11:36;;;;;;;2.92;1.80;;;11.00;99.90;;;;;;5050127;28;20025;-67
2022/12/26 02:14:06;;;;;;;2.88;1.88;;;11.00;99.90;;;;;;5049549;28;20126;-67
2022/12/26 02:16:32;;;;;;;4.03;1.98;;;10.90;99.90;;;;;;5032212;28;20570;-67
2022/12/26 02:18:58;;;;;;;2.40;1.60;;;11.00;99.90;;;;;;5049236;28;20029;-67
2022/12/26 02:21:54;;;;;;;2.15;1.73;;;10.90;99.90;;;;;;5041558;28;20024;-67
2022/12/26 02:24:26;;;;;;;2.42;1.30;;;11.00;99.90;;;;;;5050351;28;20021;-67
2022/12/26 02:27:20;;;;;;;3.35;1.55;;;11.00;99.90;;;;;;5049175;28;20454;-66
2022/12/26 02:29:45;;;;;;;4.30;1.70;;;11.00;99.90;;;;;;5043071;28;20040;-67
2022/12/26 02:32:27;;;;;;;3.50;1.55;;;11.00;99.90;;;;;;5053908;28;20498;-67
2022/12/26 02:35:06;;;;;;;6.60;2.42;;;11.00;99.90;;;;;;5044562;28;20025;-67
2022/12/26 02:38:03;;;;;;;6.65;1.80;;;11.00;99.90;;;;;;5053671;28;20037;-66
2022/12/26 02:40:45;;;;;;;3.55;1.70;;;11.00;99.90;;;;;;5053070;28;20029;-67
2022/12/26 02:43:16;;;;;;;2.17;1.52;;;11.00;99.90;;;;;;5034657;28;20032;-67
2022/12/26 03:13:09;;;;;;;4.57;2.00;;;11.00;99.90;;;;;;5041446;28;20035;-66
2022/12/26 03:18:23;;;;;;;3.42;1.80;;;11.10;99.90;;;;;;5053051;28;20107;-67
2022/12/26 03:20:50;;;;;;;3.95;1.80;;;11.10;99.90;;;;;;5052973;28;20031;-66
2022/12/26 03:23:17;;;;;;;5.70;1.85;;;11.10;99.90;;;;;;5045544;28;20071;-66
2022/12/26 03:28:42;;;;;;;6.25;3.28;;;11.20;99.90;;;;;;5052887;28;20040;-68
2022/12/26 03:31:11;;;;;;;3.88;1.90;;;11.10;99.90;;;;;;5052189;28;20036;-67
2022/12/26 03:36:30;;;;;;;3.20;1.67;;;11.10;99.90;;;;;;5052836;28;20079;-67
2022/12/26 03:39:13;;;;;;;3.60;2.15;;;11.00;99.90;;;;;;5050471;28;20115;-67
2022/12/26 04:20:54;;;;;;;2.75;1.30;;;11.00;99.90;;;;;;5016303;28;20787;-67
2022/12/26 04:44:18;;;;;;;3.47;1.55;;;11.00;99.90;;;;;;5051543;28;20166;-66
2022/12/26 04:46:46;;;;;;;1.63;1.30;;;11.00;99.90;;;;;;5042405;28;20526;-67
2022/12/26 04:52:00;;;;;;;2.22;1.42;;;11.00;99.90;;;;;;5051531;28;20135;-66
2022/12/26 04:54:27;;;;;;;2.17;1.67;;;10.90;99.90;;;;;;5051290;28;20025;-66
2022/12/26 04:56:52;;;;;;;2.30;1.58;;;10.90;99.90;;;;;;5048609;28;20055;-68
2022/12/26 04:59:19;;;;;;;3.17;1.20;;;10.90;99.90;;;;;;5032234;28;20021;-67
2022/12/26 05:09:48;;;;;;;3.40;1.60;;;10.80;99.90;;;;;;5041451;28;20045;-63
2022/12/26 05:12:13;;;;;;;3.08;1.77;;;10.80;99.90;;;;;;5047464;28;20032;-63
2022/12/26 05:14:39;;;;;;;4.60;1.35;;;10.70;99.90;;;;;;5041557;28;20033;-62
2022/12/26 05:30:55;;;;;;;2.30;1.73;;;10.60;99.90;;;;;;5016056;28;20109;-64
2022/12/26 05:36:05;;;;;;;;;;;10.50;99.90;;;;;;5031488;28;20032;-66
2022/12/26 05:38:31;;;;;;;3.15;1.45;;;10.50;99.90;;;;;;5027281;28;20298;-66
2022/12/26 05:40:56;;;;;;;5.22;2.05;;;10.50;99.90;;;;;;5024661;28;20045;-65
2022/12/26 05:43:22;;;;;;;1.92;1.10;;;10.50;99.90;;;;;;5030954;28;20029;-66
2022/12/26 05:45:47;;;;;;;2.28;1.20;;;10.40;99.90;;;;;;5023903;28;20487;-67
2022/12/26 05:48:13;;;;;;;2.13;1.23;;;10.40;99.90;;;;;;5011154;28;20028;-66
2022/12/26 05:50:38;;;;;;;2.85;1.48;;;10.40;99.90;;;;;;5010879;28;20547;-66
2022/12/26 05:53:04;;;;;;;4.10;1.00;;;10.30;99.90;;;;;;5010920;28;20026;-64
2022/12/26 05:55:30;;;;;;;2.97;1.20;;;10.30;99.90;;;;;;5010935;28;20026;-63
2022/12/26 05:57:57;;;;;;;1.90;1.20;;;10.30;99.90;;;;;;5010687;28;20034;-64
2022/12/26 06:00:23;;;;;;;2.83;1.60;;;10.30;99.90;;;;;;5019709;28;20041;-64
2022/12/26 06:02:49;;;;;;;2.50;1.30;;;10.30;99.90;;;;;;5022933;28;20091;-64
2022/12/26 06:05:14;;;;;;;2.80;1.20;;;10.20;99.90;;;;;;5028463;28;20025;-64
2022/12/26 06:07:40;;;;;;;3.05;1.30;;;10.20;99.90;;;;;;5022162;28;20038;-64
2022/12/26 06:10:06;;;;;;;5.15;1.55;;;10.20;99.90;;;;;;5014414;28;20026;-65
2022/12/26 06:12:33;;;;;;;4.70;1.10;;;10.10;99.90;;;;;;5020105;28;20030;-64
2022/12/26 06:14:59;;;;;;;2.97;1.02;;;10.20;99.90;;;;;;5025086;28;20068;-64
2022/12/26 06:17:24;;;;;;;2.17;1.23;;;10.10;99.90;;;;;;5026270;28;20103;-65
2022/12/26 06:19:50;;;;;;;2.10;0.80;;;10.00;99.90;;;;;;5034029;28;20480;-64
2022/12/26 06:22:15;;;;;;;2.25;1.27;;;10.00;99.90;;;;;;5034313;28;20026;-64
2022/12/26 06:24:41;;;;;;;2.47;1.02;;;10.00;99.90;;;;;;5033391;28;20117;-63
2022/12/26 06:27:06;;;;;;;2.00;1.17;;;10.00;99.90;;;;;;5026510;28;20025;-64
2022/12/26 06:29:32;;;;;;;2.85;0.80;;;9.90;99.90;;;;;;5029593;28;20140;-65
2022/12/26 06:31:58;;;;;;;2.38;1.80;;;9.90;99.90;;;;;;5027194;28;20034;-65
2022/12/26 06:34:23;;;;;;;0.90;0.65;;;9.90;99.90;;;;;;5034293;28;20093;-64
2022/12/26 06:36:49;;;;;;;0.73;0.73;;;9.90;99.90;;;;;;5034004;28;20475;-63
2022/12/26 06:39:14;;;;;;;1.58;1.08;;;9.90;99.90;;;;;;5033209;28;20029;-64
2022/12/26 06:41:40;;;;;;;2.90;1.17;;;9.90;99.90;;;;;;5025416;28;20084;-63
2022/12/26 06:44:05;;;;;;;2.58;1.10;;;9.90;99.90;;;;;;5033849;28;20041;-63
2022/12/26 06:46:31;;;;;;;5.80;1.30;;;9.80;99.90;;;;;;5032826;28;20030;-64
2022/12/26 06:48:56;;;;;;;8.80;1.60;;;9.80;99.90;;;;;;5012453;28;20018;-64
2022/12/26 06:51:24;;;;;;;4.10;1.80;;;9.80;99.90;;;;;;5013691;28;20026;-64
2022/12/26 06:53:52;;;;;;;5.00;1.67;;;9.80;99.90;;;;;;5015816;28;20018;-64
2022/12/26 06:56:22;;;;;;;5.00;1.70;;;9.80;99.90;;;;;;5010843;28;20074;-64
2022/12/26 06:58:56;;;;;;;4.45;2.28;;;9.80;99.90;;;;;;5026034;28;20517;-64
2022/12/26 07:01:22;;;;;;;3.47;1.58;;;9.90;99.90;;;;;;5025222;28;20025;-63
2022/12/26 07:03:48;;;;;;;1.95;1.42;;;9.80;99.90;;;;;;5033080;28;20059;-63
2022/12/26 07:06:33;;;;;;;2.15;1.25;;;9.80;99.90;;;;;;5032927;28;20108;-63
2022/12/26 07:09:01;;;;;;;1.90;1.25;;;9.80;99.90;;;;;;5023429;28;20108;-64
2022/12/26 07:11:30;;;;;;;1.17;1.05;;;9.80;99.90;;;;;;5024966;28;20105;-64
2022/12/26 07:13:56;;;;;;;2.03;1.30;;;9.80;99.90;;;;;;5032479;28;20018;-64
2022/12/26 07:16:22;;;;;;;2.75;1.20;;;9.80;99.90;;;;;;5024170;28;20026;-64
2022/12/26 07:18:50;;;;;;;3.22;1.30;;;9.80;99.90;;;;;;5033154;28;20033;-63
2022/12/26 07:21:15;;;;;;;2.67;1.15;;;9.70;99.90;;;;;;5032773;28;20033;-64
2022/12/26 07:23:41;;;;;;;2.33;1.20;;;9.70;99.90;;;;;;5028627;28;20018;-63
2022/12/26 07:26:08;;;;;;;1.88;1.08;;;9.70;99.90;;;;;;5027329;28;20445;-63
2022/12/26 07:28:33;;;;;;;1.52;1.42;;;9.70;99.90;;;;;;5024852;28;20064;-63
2022/12/26 07:30:59;;;;;;;4.28;1.55;;;9.70;99.90;;;;;;5032852;28;20057;-64
2022/12/26 07:33:26;;;;;;;2.50;1.35;;;9.70;99.90;;;;;;5033031;28;20018;-64
2022/12/26 07:35:52;;;;;;;2.55;0.90;;;9.70;99.90;;;;;;5026327;28;20064;-65
2022/12/26 07:38:18;;;;;;;0.68;0.68;;;9.70;99.90;;;;;;5019948;28;20057;-63
2022/12/26 07:40:44;;;;;;;5.45;2.50;;;9.80;99.90;;;;;;5020011;28;20069;-64
2022/12/26 07:43:09;;;;;;;2.28;1.33;;;9.80;99.90;;;;;;5021944;28;20488;-64
2022/12/26 07:45:35;;;;;;;4.65;2.63;;;9.80;99.90;;;;;;5032396;28;20072;-64
2022/12/26 07:48:00;;;;;;;7.07;4.32;;;9.70;99.90;;;;;;5032628;28;20036;-64
2022/12/26 07:50:27;;;;;;;6.30;4.35;;;9.70;99.90;;;;;;5025377;28;20053;-64
2022/12/26 07:52:53;;;;;;;2.72;2.20;;;9.70;99.90;;;;;;5026315;28;20060;-64
2022/12/26 07:55:19;;;;;;;1.67;1.58;;;9.70;99.90;;;;;;5031625;28;20041;-64
2022/12/26 07:57:50;;;;;;;2.00;1.45;;;9.70;99.90;;;;;;5026864;28;20026;-63
2022/12/26 08:00:17;;;;;;;1.55;1.10;;;9.70;99.90;;;;;;5029237;28;20026;-64
2022/12/26 08:02:43;;;;;;;2.55;1.70;;;9.70;99.90;;;;;;5032250;28;20029;-64
2022/12/26 08:05:09;;;;;;;2.97;1.90;;;9.70;99.90;;;;;;5030491;28;20090;-65
2022/12/26 08:07:34;;;;;;;4.45;3.00;;;9.80;99.90;;;;;;5015780;28;20437;-64
2022/12/26 08:10:00;;;;;;;3.83;2.63;;;9.80;99.90;;;;;;5031908;28;20040;-65
2022/12/26 08:12:25;;;;;;;3.08;2.05;;;9.80;99.90;;;;;;5032295;28;20033;-64
2022/12/26 08:14:51;;;;;;;2.17;1.85;;;9.80;99.90;;;;;;5030385;28;20033;-65
2022/12/26 08:17:17;;;;;;;3.70;1.65;;;9.70;99.90;;;;;;5023388;28;20029;-65
2022/12/26 08:19:42;;;;;;;2.33;1.67;;;9.80;99.90;;;;;;5030929;28;20021;-64
2022/12/26 08:22:08;;;;;;;2.80;1.80;;;9.80;99.90;;;;;;5023680;28;20036;-65
2022/12/26 08:24:34;;;;;;;2.97;1.30;;;9.80;99.90;;;;;;5031952;28;20033;-64
2022/12/26 08:26:59;;;;;;;3.28;1.27;;;9.80;99.90;;;;;;5011312;28;20040;-64
2022/12/26 08:29:25;;;;;;;2.47;1.10;;;9.80;99.90;;;;;;5012978;28;20099;-64
2022/12/26 08:31:51;;;;;;;1.60;1.10;;;9.80;99.90;;;;;;5012709;28;20103;-65
2022/12/26 08:34:17;;;;;;;1.52;1.25;;;9.80;99.90;;;;;;5023663;28;20036;-64
2022/12/26 08:36:43;;;;;;;3.15;0.85;;;9.80;99.90;;;;;;5031902;28;20034;-64
2022/12/26 08:39:09;;;;;;;2.30;1.40;;;9.80;99.90;;;;;;5030934;28;20483;-65
2022/12/26 08:41:34;;;;;;;5.25;4.75;;;9.80;99.90;;;;;;5022103;28;20109;-64
2022/12/26 08:44:00;;;;;;;7.75;4.00;;;9.80;99.90;;;;;;5007272;28;20080;-64
2022/12/26 08:46:25;;;;;;;3.13;2.80;;;9.80;99.90;;;;;;5011779;28;20022;-63
2022/12/26 08:48:51;;;;;;;2.10;1.90;;;9.80;99.90;;;;;;5011835;28;20026;-64
2022/12/26 08:51:22;;;;;;;8.98;5.00;;;9.80;99.90;;;;;;5011398;28;20022;-64
2022/12/26 08:53:49;;;;;;;4.63;2.90;;;9.80;99.90;;;;;;5016130;28;20104;-65
2022/12/26 08:56:18;;;;;;;2.05;1.52;;;9.90;99.90;;;;;;5029633;28;20034;-65
2022/12/26 08:58:45;;;;;;;1.88;1.45;;;9.90;99.90;;;;;;5018824;28;20022;-64
2022/12/26 09:01:14;;;;;;;4.13;1.80;;;9.90;99.90;;;;;;5019227;28;20054;-65
2022/12/26 09:03:40;;;;;;;1.92;1.70;;;10.00;99.90;;;;;;5011186;28;20046;-64
2022/12/26 09:06:06;;;;;;;4.63;1.77;;;10.10;99.90;;;;;;5011524;28;20021;-64
2022/12/26 09:08:33;;;;;;;5.22;2.10;;;10.20;99.90;;;;;;5011319;28;20033;-64
2022/12/26 09:11:21;;;;;;;2.53;2.08;;;10.20;99.90;;;;;;5018116;28;20029;-65
2022/12/26 09:13:47;;;;;;;26.30;10.27;;;10.20;99.90;;;;;;5023435;28;20029;-65
2022/12/26 09:16:22;;;;;;;56.65;24.88;;;10.30;99.90;;;;;;5022715;28;20033;-65
2022/12/26 09:18:52;;;;;;;19.23;8.43;;;10.30;99.90;;;;;;5031028;28;20052;-65
2022/12/26 09:21:18;;;;;;;39.35;15.80;;;10.30;99.90;;;;;;5030570;28;20037;-64
2022/12/26 09:23:44;;;;;;;19.00;8.85;;;10.40;99.90;;;;;;5030999;28;20033;-65
2022/12/26 09:26:17;;;;;;;18.23;7.97;;;10.40;99.90;;;;;;5029270;28;20029;-64
2022/12/26 09:28:45;;;;;;;19.10;8.85;;;10.50;99.90;;;;;;5011245;28;20036;-64
2022/12/26 09:31:14;;;;;;;7.07;4.30;;;10.60;99.90;;;;;;5015972;28;20037;-64
2022/12/26 09:33:39;;;;;;;5.72;2.63;;;10.60;99.90;;;;;;5021516;28;20064;-64
2022/12/26 09:36:08;;;;;;;47.55;17.58;;;10.70;99.90;;;;;;5030642;28;20067;-64
2022/12/26 09:38:35;;;;;;;30.63;11.82;;;10.70;99.90;;;;;;5029090;28;20029;-63
2022/12/26 09:41:13;;;;;;;20.35;8.95;;;10.60;99.90;;;;;;5022917;28;20026;-65
2022/12/26 09:44:05;;;;;;;7.32;4.13;;;10.70;99.90;;;;;;5011167;28;20018;-64
2022/12/26 09:46:37;;;;;;;21.85;9.40;;;10.70;99.90;;;;;;5010949;28;20022;-64
2022/12/26 09:49:16;;;;;;;5.18;2.88;;;10.70;99.90;;;;;;5019320;28;20033;-64
2022/12/26 09:51:45;;;;;;;19.80;10.57;;;10.80;99.90;;;;;;5010741;28;20029;-64
2022/12/26 09:54:17;;;;;;;7.53;4.53;;;10.80;99.90;;;;;;5023332;28;20037;-64
2022/12/26 09:56:45;;;;;;;3.97;2.65;;;10.90;99.90;;;;;;5023011;28;20652;-63
2022/12/26 09:59:17;;;;;;;5.07;2.00;;;10.90;99.90;;;;;;5029788;28;20025;-64
2022/12/26 10:01:43;;;;;;;4.22;2.40;;;11.00;99.90;;;;;;5027449;28;20022;-63
2022/12/26 10:04:21;;;;;;;14.65;6.53;;;11.10;99.90;;;;;;5021759;28;20022;-64
2022/12/26 10:06:56;;;;;;;21.70;10.52;;;11.00;99.90;;;;;;5015556;28;20480;-64
2022/12/26 10:09:47;;;;;;;104.45;44.75;;;11.00;99.90;;;;;;5027196;28;20049;-64
2022/12/26 10:12:36;;;;;;;40.67;14.48;;;11.10;99.90;;;;;;5022134;28;20026;-64
2022/12/26 10:15:20;;;;;;;15.82;6.63;;;11.00;99.90;;;;;;5012842;28;20030;-64
2022/12/26 10:17:50;;;;;;;;;;;11.00;99.90;;;;;;5029780;28;20031;-65
2022/12/26 10:20:18;;;;;;;2.58;1.58;;;11.00;99.90;;;;;;5021859;28;19936;-64
2022/12/26 10:22:49;;;;;;;3.38;1.60;;;11.00;99.90;;;;;;5029637;28;20391;-64
2022/12/26 10:25:24;;;;;;;23.65;11.85;;;11.00;99.90;;;;;;5021981;28;20509;-64
2022/12/26 10:27:51;;;;;;;6.32;3.50;;;11.10;99.90;;;;;;5030152;28;20438;-65
2022/12/26 10:30:32;;;;;;;2.42;2.10;;;11.00;99.90;;;;;;5030085;28;20026;-63
2022/12/26 10:33:03;;;;;;;6.68;1.92;;;10.90;99.90;;;;;;5028605;28;20052;-64
2022/12/26 10:35:34;;;;;;;2.65;1.00;;;10.90;99.90;;;;;;5027258;28;20040;-63
2022/12/26 10:38:31;;;;;;;2.65;1.52;;;10.90;99.90;;;;;;5021629;28;20088;-64
2022/12/26 10:41:04;;;;;;;1.75;0.90;;;11.00;99.90;;;;;;5008115;28;20041;-64
2022/12/26 10:43:32;;;;;;;2.75;1.30;;;11.00;99.90;;;;;;5010545;28;20027;-65
2022/12/26 10:46:01;;;;;;;2.97;1.30;;;11.10;99.90;;;;;;5013357;28;20501;-64
2022/12/26 10:48:27;;;;;;;8.50;1.45;;;11.10;99.90;;;;;;5027178;28;20033;-65
2022/12/26 10:50:53;;;;;;;7.80;4.00;;;11.20;99.90;;;;;;5023494;28;20033;-64
2022/12/26 10:53:19;;;;;;;8.18;4.57;;;11.20;99.90;;;;;;5025264;28;20112;-64
2022/12/26 10:55:45;;;;;;;5.10;1.85;;;11.30;99.90;;;;;;5012213;28;20072;-64
2022/12/26 10:58:27;;;;;;;10.02;4.07;;;11.20;99.90;;;;;;5029254;28;20029;-64
2022/12/26 11:00:53;;;;;;;3.42;1.92;;;11.10;99.90;;;;;;5027473;28;20025;-63
2022/12/26 11:03:19;;;;;;;9.15;2.60;;;11.10;99.90;;;;;;5030378;28;20036;-65
2022/12/26 11:05:51;;;;;;;9.13;3.22;;;11.10;99.90;;;;;;5032221;28;20036;-63
2022/12/26 11:08:45;;;;;;;8.63;2.88;;;11.10;99.90;;;;;;5032923;28;20095;-64
2022/12/26 11:11:18;;;;;;;29.08;10.38;;;11.10;99.90;;;;;;5033211;28;20037;-63
2022/12/26 11:13:56;;;;;;;28.00;9.95;;;11.10;99.90;;;;;;5014384;28;20030;-63
2022/12/26 11:16:30;;;;;;;28.13;9.23;;;11.10;99.90;;;;;;5065033;23;20050;-65
2022/12/26 11:18:57;;;;;;;14.45;5.45;;;11.00;99.90;;;;;;5030967;28;20029;-64
2022/12/26 11:21:25;;;;;;;15.68;5.78;;;11.00;99.90;;;;;;5031924;28;20026;-65
2022/12/26 11:24:09;;;;;;;11.90;3.17;;;11.10;99.90;;;;;;5015420;28;20021;-65
2022/12/26 11:26:37;;;;;;;11.02;4.05;;;11.10;99.90;;;;;;5015288;28;20376;-65
2022/12/26 11:29:17;;;;;;;22.17;7.25;;;11.20;99.90;;;;;;5032197;28;20034;-65
2022/12/26 11:31:55;;;;;;;15.77;5.40;;;11.20;99.90;;;;;;5025177;28;20025;-65
2022/12/26 11:34:33;;;;;;;25.33;6.65;;;11.20;99.90;;;;;;5030834;28;20458;-65
2022/12/26 11:36:59;;;;;;;6.93;2.33;;;11.20;99.90;;;;;;5032548;28;20442;-65
2022/12/26 11:39:28;;;;;;;5.18;1.60;;;11.40;99.90;;;;;;5031712;28;20025;-66
2022/12/26 11:41:54;;;;;;;4.38;1.33;;;11.30;99.90;;;;;;5026776;28;20026;-65
2022/12/26 11:44:32;;;;;;;7.35;2.00;;;11.30;99.90;;;;;;5031627;28;20037;-65
2022/12/26 11:47:09;;;;;;;3.45;1.27;;;11.40;99.90;;;;;;5030378;28;20025;-65
2022/12/26 11:49:44;;;;;;;8.98;1.55;;;11.40;99.90;;;;;;5032312;28;20034;-65
2022/12/26 11:52:38;;;;;;;2.97;1.00;;;11.40;99.90;;;;;;5031723;28;20032;-67
2022/12/26 11:55:25;;;;;;;5.03;1.33;;;11.40;99.90;;;;;;5032551;28;20034;-66
2022/12/26 11:58:00;;;;;;;4.75;1.10;;;11.40;99.90;;;;;;5032219;28;20021;-65
2022/12/26 12:00:27;;;;;;;22.23;6.30;;;11.40;99.90;;;;;;5030237;28;20022;-66
2022/12/26 12:02:53;;;;;;;16.20;4.50;;;11.30;99.90;;;;;;5029604;28;22481;-67
2022/12/26 12:05:51;;;;;;;19.55;4.85;;;11.30;99.90;;;;;;5031101;28;20513;-66
2022/12/26 12:08:22;;;;;;;5.35;1.52;;;11.20;99.90;;;;;;5026621;28;20041;-66
2022/12/26 12:11:07;;;;;;;3.20;1.42;;;11.20;99.90;;;;;;5031475;28;20487;-66
2022/12/26 12:14:09;;;;;;;8.38;1.73;;;11.10;99.90;;;;;;5030693;28;20045;-65
2022/12/26 12:17:04;;;;;;;9.15;2.78;;;11.10;99.90;;;;;;5031372;28;20076;-66
2022/12/26 12:19:55;;;;;;;4.82;2.05;;;11.20;99.90;;;;;;4977604;28;20120;-63
2022/12/26 12:22:45;;;;;;;5.70;1.58;;;11.20;99.90;;;;;;5032332;28;20057;-66
2022/12/26 12:25:24;;;;;;;2.92;1.38;;;11.20;99.90;;;;;;5032324;28;20027;-65
2022/12/26 12:28:11;;;;;;;9.52;2.63;;;11.10;99.90;;;;;;5029918;28;20495;-65
2022/12/26 12:31:13;;;;;;;8.25;3.17;;;11.10;99.90;;;;;;5031316;28;20056;-66
2022/12/26 12:33:50;;;;;;;10.82;1.95;;;11.10;99.90;;;;;;5031746;28;20029;-66
2022/12/26 12:36:31;;;;;;;2.67;0.70;;;11.00;99.90;;;;;;5031737;28;20029;-65
2022/12/26 12:38:56;;;;;;;8.35;1.27;;;10.90;99.90;;;;;;5031784;28;20052;-65
2022/12/26 12:41:51;;;;;;;6.18;1.23;;;10.90;99.90;;;;;;5030310;28;20747;-65
2022/12/26 12:44:39;;;;;;;10.50;1.20;;;10.80;99.90;;;;;;5030516;28;20034;-65
2022/12/26 12:47:13;;;;;;;1.45;0.77;;;10.70;99.90;;;;;;5031579;28;20048;-65
2022/12/26 12:50:08;;;;;;;3.90;1.27;;;10.80;99.90;;;;;;5031230;28;20027;-65
2022/12/26 12:53:26;;;;;;;7.22;1.08;;;10.70;99.90;;;;;;5031361;28;20060;-66
2022/12/26 12:56:15;;;;;;;7.07;1.95;;;10.70;99.90;;;;;;5030197;28;20092;-65
2022/12/26 12:59:02;;;;;;;1.70;0.70;;;10.60;99.90;;;;;;5030149;28;20033;-64
2022/12/26 13:01:41;;;;;;;5.63;1.40;;;10.60;99.90;;;;;;5029592;28;20410;-66
2022/12/26 13:04:25;;;;;;;3.30;1.13;;;10.50;99.90;;;;;;5031235;28;20018;-66
2022/12/26 13:06:55;;;;;;;6.75;1.33;;;10.50;99.90;;;;;;5031058;28;20032;-65
2022/12/26 13:09:36;;;;;;;3.60;1.08;;;10.50;99.90;;;;;;5028572;28;20040;-66
2022/12/26 13:12:08;;;;;;;4.78;1.13;;;10.50;99.90;;;;;;5026477;28;20033;-65
2022/12/26 13:14:47;;;;;;;3.33;1.10;;;10.50;99.90;;;;;;5029855;28;20403;-67
2022/12/26 13:17:26;;;;;;;9.27;2.55;;;10.40;99.90;;;;;;5030631;28;20491;-64
2022/12/26 13:20:04;;;;;;;2.88;1.15;;;10.50;99.90;;;;;;5030788;28;20017;-64
2022/12/26 13:25:28;;;;;;;7.75;1.00;;;10.50;99.90;;;;;;5027593;28;20108;-64
2022/12/26 13:28:08;;;;;;;1.45;0.90;;;10.50;99.90;;;;;;5026982;28;20035;-64
2022/12/26 13:30:34;;;;;;;4.07;1.02;;;10.50;99.90;;;;;;5027193;28;20462;-63
2022/12/26 13:33:01;;;;;;;5.80;1.10;;;10.50;99.90;;;;;;5028592;28;20038;-64
2022/12/26 13:35:50;;;;;;;3.70;1.27;;;10.50;99.90;;;;;;5030706;28;20696;-63
2022/12/26 13:38:15;;;;;;;6.07;1.10;;;10.60;99.90;;;;;;5025648;28;20060;-63
2022/12/26 13:40:51;;;;;;;2.15;0.93;;;10.60;99.90;;;;;;5033128;28;20070;-64
2022/12/26 13:46:35;;;;;;;4.95;1.00;;;10.60;99.90;;;;;;5030861;28;20025;-64
2022/12/26 13:49:01;;;;;;;2.92;1.02;;;10.60;99.90;;;;;;5029405;28;20029;-64
2022/12/26 13:51:48;;;;;;;1.65;0.95;;;10.60;99.90;;;;;;5027912;28;20471;-64
2022/12/26 13:54:15;;;;;;;1.90;1.00;;;10.60;99.90;;;;;;5029837;28;20113;-65
2022/12/26 13:56:40;;;;;;;2.38;1.00;;;10.50;99.90;;;;;;5037886;28;20391;-63
2022/12/26 13:59:06;;;;;;;6.43;1.55;;;10.50;99.90;;;;;;5030301;28;20023;-65
2022/12/26 14:01:58;;;;;;;2.13;1.05;;;10.30;99.90;;;;;;5030114;28;20029;-64
2022/12/26 14:04:42;;;;;;;11.70;2.15;;;10.20;99.90;;;;;;4992769;28;20125;-64
2022/12/26 14:07:19;;;;;;;4.00;1.23;;;10.00;99.90;;;;;;5026064;28;20025;-65
2022/12/26 14:10:10;;;;;;;1.92;1.00;;;9.80;99.90;;;;;;5018628;28;20041;-64
2022/12/26 14:12:50;;;;;;;2.78;1.98;;;9.70;99.90;;;;;;5029954;28;20026;-64
2022/12/26 14:15:35;;;;;;;1.35;0.98;;;9.50;99.90;;;;;;5030370;28;20029;-64
2022/12/26 14:18:21;;;;;;;3.38;1.50;;;9.40;99.90;;;;;;5030055;28;20034;-63
2022/12/26 14:21:11;;;;;;;3.55;1.08;;;9.30;99.90;;;;;;5030042;28;20108;-65
2022/12/26 14:24:01;;;;;;;4.15;1.55;;;9.30;99.90;;;;;;5028234;28;20176;-65
2022/12/26 14:26:50;;;;;;;1.02;0.95;;;9.20;99.90;;;;;;5025564;28;20080;-64
2022/12/26 14:29:22;;;;;;;3.72;1.00;;;9.20;99.90;;;;;;5034018;28;20021;-65
2022/12/26 14:32:17;;;;;;;6.25;1.48;;;9.10;99.90;;;;;;5033770;28;20025;-64
2022/12/26 14:34:59;;;;;;;1.25;1.00;;;9.10;99.90;;;;;;5034118;28;20092;-64
2022/12/26 14:37:33;;;;;;;3.35;1.48;;;9.10;99.90;;;;;;5033892;28;20021;-66
2022/12/26 14:40:04;;;;;;;;;;;9.10;99.90;;;;;;5032161;28;20040;-64
2022/12/26 14:45:27;;;;;;;2.03;1.30;;;9.00;99.90;;;;;;5033992;28;20569;-64
2022/12/26 14:47:52;;;;;;;2.42;1.80;;;9.00;99.90;;;;;;5033785;28;20394;-64
2022/12/26 14:50:49;;;;;;;5.00;2.70;;;9.00;99.90;;;;;;5033531;28;20037;-64
2022/12/26 14:53:23;;;;;;;5.07;1.40;;;8.90;99.90;;;;;;5033815;28;20029;-65
2022/12/26 14:56:19;;;;;;;3.53;1.65;;;8.90;99.90;;;;;;5030179;28;20033;-65
2022/12/26 14:58:44;;;;;;;6.43;2.00;;;8.90;99.90;;;;;;5010773;28;20053;-65
2022/12/26 15:01:19;;;;;;;3.03;2.08;;;8.80;99.90;;;;;;5032352;28;20559;-64
2022/12/26 15:04:06;;;;;;;8.95;1.85;;;8.80;99.90;;;;;;5028720;28;20055;-65
2022/12/26 15:06:50;;;;;;;6.00;2.17;;;8.80;99.90;;;;;;5033124;28;20024;-65
2022/12/26 15:09:30;;;;;;;4.40;1.70;;;8.80;99.90;;;;;;5032249;28;20398;-64
2022/12/26 15:12:17;;;;;;;3.92;1.80;;;8.70;99.90;;;;;;5015342;28;20442;-64
2022/12/26 15:15:07;;;;;;;4.68;1.83;;;8.60;99.90;;;;;;5033337;28;20029;-64
2022/12/26 15:17:49;;;;;;;13.13;2.40;;;8.50;99.90;;;;;;5031854;28;20033;-63
2022/12/26 15:20:33;;;;;;;3.60;1.40;;;8.50;99.90;;;;;;5033111;28;20026;-64
2022/12/26 15:23:01;;;;;;;;;;;8.40;99.90;;;;;;5031441;28;20510;-65
2022/12/26 15:25:45;;;;;;;5.32;1.55;;;8.40;99.90;;;;;;5032781;28;19963;-64
2022/12/26 15:28:20;;;;;;;;;;;8.30;99.90;;;;;;5031859;28;20021;-64
2022/12/26 15:31:22;;;;;;;6.03;2.00;;;8.30;99.90;;;;;;5029973;28;19915;-64